sensor_id;sensor_type;location;lat;lon;timestamp;temperature;humidity
20066;DHT22;10193;48.884;9.182;2022-10-19T00:01:20;17.20;74.70
20066;DHT22;10193;48.884;9.182;2022-10-19T00:03:49;17.20;74.80
20066;DHT22;10193;48.884;9.182;2022-10-19T00:06:19;17.20;75.00
20066;DHT22;10193;48.884;9.182;2022-10-19T00:08:50;17.20;75.20
20066;DHT22;10193;48.884;9.182;2022-10-19T00:11:17;17.10;75.20
20066;DHT22;10193;48.884;9.182;2022-10-19T00:13:45;17.10;75.90
20066;DHT22;10193;48.884;9.182;2022-10-19T00:16:14;17.10;75.10
20066;DHT22;10193;48.884;9.182;2022-10-19T00:18:42;17.10;75.30
20066;DHT22;10193;48.884;9.182;2022-10-19T00:21:14;17.10;75.40
20066;DHT22;10193;48.884;9.182;2022-10-19T00:23:41;17.00;75.50
20066;DHT22;10193;48.884;9.182;2022-10-19T00:26:08;17.00;75.70
20066;DHT22;10193;48.884;9.182;2022-10-19T00:28:35;17.00;75.80
20066;DHT22;10193;48.884;9.182;2022-10-19T00:31:05;17.00;76.10
20066;DHT22;10193;48.884;9.182;2022-10-19T00:33:32;17.00;76.30
20066;DHT22;10193;48.884;9.182;2022-10-19T00:35:59;17.00;77.10
20066;DHT22;10193;48.884;9.182;2022-10-19T00:38:26;17.00;76.50
20066;DHT22;10193;48.884;9.182;2022-10-19T00:40:53;17.00;76.60
20066;DHT22;10193;48.884;9.182;2022-10-19T00:43:22;17.00;76.60
20066;DHT22;10193;48.884;9.182;2022-10-19T00:45:49;17.00;77.50
20066;DHT22;10193;48.884;9.182;2022-10-19T00:48:22;17.00;76.80
20066;DHT22;10193;48.884;9.182;2022-10-19T00:50:50;17.00;77.00
20066;DHT22;10193;48.884;9.182;2022-10-19T00:53:19;17.00;77.10
20066;DHT22;10193;48.884;9.182;2022-10-19T00:55:46;17.00;77.00
20066;DHT22;10193;48.884;9.182;2022-10-19T00:58:13;17.00;77.20
20066;DHT22;10193;48.884;9.182;2022-10-19T01:00:40;17.00;77.40
20066;DHT22;10193;48.884;9.182;2022-10-19T01:03:08;17.00;77.60
20066;DHT22;10193;48.884;9.182;2022-10-19T01:05:38;17.00;78.40
20066;DHT22;10193;48.884;9.182;2022-10-19T01:08:07;17.00;77.70
20066;DHT22;10193;48.884;9.182;2022-10-19T01:10:42;17.10;77.90
20066;DHT22;10193;48.884;9.182;2022-10-19T01:13:35;17.00;78.00
20066;DHT22;10193;48.884;9.182;2022-10-19T01:16:13;17.00;78.30
20066;DHT22;10193;48.884;9.182;2022-10-19T01:18:44;17.00;77.90
20066;DHT22;10193;48.884;9.182;2022-10-19T01:21:20;17.10;78.00
20066;DHT22;10193;48.884;9.182;2022-10-19T01:27:20;17.00;78.80
20066;DHT22;10193;48.884;9.182;2022-10-19T01:30:02;17.00;78.90
20066;DHT22;10193;48.884;9.182;2022-10-19T01:32:37;17.10;79.00
20066;DHT22;10193;48.884;9.182;2022-10-19T01:35:09;17.10;78.80
20066;DHT22;10193;48.884;9.182;2022-10-19T01:37:41;17.10;78.70
20066;DHT22;10193;48.884;9.182;2022-10-19T01:40:18;17.20;79.00
20066;DHT22;10193;48.884;9.182;2022-10-19T01:42:51;17.20;79.00
20066;DHT22;10193;48.884;9.182;2022-10-19T01:45:26;17.20;78.90
20066;DHT22;10193;48.884;9.182;2022-10-19T01:47:57;17.20;79.10
20066;DHT22;10193;48.884;9.182;2022-10-19T01:50:30;17.20;79.10
20066;DHT22;10193;48.884;9.182;2022-10-19T01:53:02;17.20;79.00
20066;DHT22;10193;48.884;9.182;2022-10-19T01:55:30;17.30;79.10
20066;DHT22;10193;48.884;9.182;2022-10-19T01:58:01;17.30;79.10
20066;DHT22;10193;48.884;9.182;2022-10-19T02:00:30;17.30;80.00
20066;DHT22;10193;48.884;9.182;2022-10-19T02:02:59;17.30;79.10
20066;DHT22;10193;48.884;9.182;2022-10-19T02:05:29;17.30;79.20
20066;DHT22;10193;48.884;9.182;2022-10-19T02:08:00;17.30;79.20
20066;DHT22;10193;48.884;9.182;2022-10-19T02:10:30;17.30;79.10
20066;DHT22;10193;48.884;9.182;2022-10-19T02:12:58;17.30;79.10
20066;DHT22;10193;48.884;9.182;2022-10-19T02:15:26;17.40;80.10
20066;DHT22;10193;48.884;9.182;2022-10-19T02:17:56;17.40;79.40
20066;DHT22;10193;48.884;9.182;2022-10-19T02:20:25;17.40;79.60
20066;DHT22;10193;48.884;9.182;2022-10-19T02:22:52;17.40;80.40
20066;DHT22;10193;48.884;9.182;2022-10-19T02:25:20;17.40;79.60
20066;DHT22;10193;48.884;9.182;2022-10-19T02:27:47;17.40;79.70
20066;DHT22;10193;48.884;9.182;2022-10-19T02:30:16;17.40;79.70
20066;DHT22;10193;48.884;9.182;2022-10-19T02:32:46;17.50;79.90
20066;DHT22;10193;48.884;9.182;2022-10-19T02:35:14;17.50;79.90
20066;DHT22;10193;48.884;9.182;2022-10-19T02:37:42;17.50;79.90
20066;DHT22;10193;48.884;9.182;2022-10-19T02:40:09;17.50;79.80
20066;DHT22;10193;48.884;9.182;2022-10-19T02:42:40;17.50;79.80
20066;DHT22;10193;48.884;9.182;2022-10-19T02:45:11;17.50;79.80
20066;DHT22;10193;48.884;9.182;2022-10-19T02:47:42;17.50;79.70
20066;DHT22;10193;48.884;9.182;2022-10-19T02:50:10;17.50;79.60
20066;DHT22;10193;48.884;9.182;2022-10-19T02:52:39;17.50;79.60
20066;DHT22;10193;48.884;9.182;2022-10-19T02:55:07;17.50;79.50
20066;DHT22;10193;48.884;9.182;2022-10-19T02:57:34;17.50;79.60
20066;DHT22;10193;48.884;9.182;2022-10-19T03:00:03;17.50;79.50
20066;DHT22;10193;48.884;9.182;2022-10-19T03:02:30;17.50;79.50
20066;DHT22;10193;48.884;9.182;2022-10-19T03:04:57;17.50;79.50
20066;DHT22;10193;48.884;9.182;2022-10-19T03:07:24;17.60;79.50
20066;DHT22;10193;48.884;9.182;2022-10-19T03:09:52;17.50;79.40
20066;DHT22;10193;48.884;9.182;2022-10-19T03:12:19;17.50;79.50
20066;DHT22;10193;48.884;9.182;2022-10-19T03:14:46;17.50;79.50
20066;DHT22;10193;48.884;9.182;2022-10-19T03:17:13;17.50;79.50
20066;DHT22;10193;48.884;9.182;2022-10-19T03:19:40;17.50;79.50
20066;DHT22;10193;48.884;9.182;2022-10-19T03:22:07;17.50;79.40
20066;DHT22;10193;48.884;9.182;2022-10-19T03:24:35;17.50;79.40
20066;DHT22;10193;48.884;9.182;2022-10-19T03:27:03;17.50;79.40
20066;DHT22;10193;48.884;9.182;2022-10-19T03:29:30;17.40;79.50
20066;DHT22;10193;48.884;9.182;2022-10-19T03:31:57;17.50;79.60
20066;DHT22;10193;48.884;9.182;2022-10-19T03:34:24;17.40;79.70
20066;DHT22;10193;48.884;9.182;2022-10-19T03:36:50;17.40;79.80
20066;DHT22;10193;48.884;9.182;2022-10-19T03:39:17;17.40;79.80
20066;DHT22;10193;48.884;9.182;2022-10-19T03:41:44;17.40;79.80
20066;DHT22;10193;48.884;9.182;2022-10-19T03:44:12;17.40;79.90
20066;DHT22;10193;48.884;9.182;2022-10-19T03:46:39;17.50;80.00
20066;DHT22;10193;48.884;9.182;2022-10-19T03:49:09;17.50;80.10
20066;DHT22;10193;48.884;9.182;2022-10-19T03:51:36;17.50;80.20
20066;DHT22;10193;48.884;9.182;2022-10-19T03:54:05;17.50;80.10
20066;DHT22;10193;48.884;9.182;2022-10-19T03:56:33;17.50;80.10
20066;DHT22;10193;48.884;9.182;2022-10-19T03:59:01;17.50;80.00
20066;DHT22;10193;48.884;9.182;2022-10-19T04:01:32;17.50;79.90
20066;DHT22;10193;48.884;9.182;2022-10-19T04:04:00;17.50;79.90
20066;DHT22;10193;48.884;9.182;2022-10-19T04:06:29;17.50;79.80
20066;DHT22;10193;48.884;9.182;2022-10-19T04:08:57;17.50;80.50
20066;DHT22;10193;48.884;9.182;2022-10-19T04:11:27;17.40;79.60
20066;DHT22;10193;48.884;9.182;2022-10-19T04:13:55;17.40;79.50
20066;DHT22;10193;48.884;9.182;2022-10-19T04:16:23;17.40;79.50
20066;DHT22;10193;48.884;9.182;2022-10-19T04:18:52;17.40;79.50
20066;DHT22;10193;48.884;9.182;2022-10-19T04:21:21;17.30;79.50
20066;DHT22;10193;48.884;9.182;2022-10-19T04:23:49;17.30;79.60
20066;DHT22;10193;48.884;9.182;2022-10-19T04:26:16;17.30;79.70
20066;DHT22;10193;48.884;9.182;2022-10-19T04:28:43;17.40;79.90
20066;DHT22;10193;48.884;9.182;2022-10-19T04:31:11;17.30;79.90
20066;DHT22;10193;48.884;9.182;2022-10-19T04:33:38;17.30;79.90
20066;DHT22;10193;48.884;9.182;2022-10-19T04:36:09;17.30;80.00
20066;DHT22;10193;48.884;9.182;2022-10-19T04:38:36;17.30;80.10
20066;DHT22;10193;48.884;9.182;2022-10-19T04:41:05;17.30;80.10
20066;DHT22;10193;48.884;9.182;2022-10-19T04:43:32;17.30;80.00
20066;DHT22;10193;48.884;9.182;2022-10-19T04:46:02;17.30;80.10
20066;DHT22;10193;48.884;9.182;2022-10-19T04:48:29;17.30;80.20
20066;DHT22;10193;48.884;9.182;2022-10-19T04:50:55;17.30;80.10
20066;DHT22;10193;48.884;9.182;2022-10-19T04:53:24;17.30;80.00
20066;DHT22;10193;48.884;9.182;2022-10-19T04:55:51;17.30;80.00
20066;DHT22;10193;48.884;9.182;2022-10-19T04:58:17;17.20;79.90
20066;DHT22;10193;48.884;9.182;2022-10-19T05:00:44;17.20;79.90
20066;DHT22;10193;48.884;9.182;2022-10-19T05:03:11;17.20;79.90
20066;DHT22;10193;48.884;9.182;2022-10-19T05:05:38;17.20;79.90
20066;DHT22;10193;48.884;9.182;2022-10-19T05:08:05;17.20;79.90
20066;DHT22;10193;48.884;9.182;2022-10-19T05:10:34;17.20;79.80
20066;DHT22;10193;48.884;9.182;2022-10-19T05:13:01;17.20;79.80
20066;DHT22;10193;48.884;9.182;2022-10-19T05:15:29;17.20;79.80
20066;DHT22;10193;48.884;9.182;2022-10-19T05:17:56;17.10;79.60
20066;DHT22;10193;48.884;9.182;2022-10-19T05:20:23;17.10;79.60
20066;DHT22;10193;48.884;9.182;2022-10-19T05:22:50;17.10;79.60
20066;DHT22;10193;48.884;9.182;2022-10-19T05:25:17;17.10;79.60
20066;DHT22;10193;48.884;9.182;2022-10-19T05:27:50;17.00;79.60
20066;DHT22;10193;48.884;9.182;2022-10-19T05:30:17;17.00;79.80
20066;DHT22;10193;48.884;9.182;2022-10-19T05:32:44;17.00;79.80
20066;DHT22;10193;48.884;9.182;2022-10-19T05:35:11;17.00;79.80
20066;DHT22;10193;48.884;9.182;2022-10-19T05:37:38;17.00;79.80
20066;DHT22;10193;48.884;9.182;2022-10-19T05:40:06;17.00;79.90
20066;DHT22;10193;48.884;9.182;2022-10-19T05:42:33;16.90;79.90
20066;DHT22;10193;48.884;9.182;2022-10-19T05:45:01;16.90;80.10
20066;DHT22;10193;48.884;9.182;2022-10-19T05:47:28;16.90;80.10
20066;DHT22;10193;48.884;9.182;2022-10-19T05:49:55;16.90;80.20
20066;DHT22;10193;48.884;9.182;2022-10-19T05:52:22;16.90;80.30
20066;DHT22;10193;48.884;9.182;2022-10-19T05:54:48;16.90;80.30
20066;DHT22;10193;48.884;9.182;2022-10-19T05:57:15;16.90;80.30
20066;DHT22;10193;48.884;9.182;2022-10-19T05:59:42;16.90;80.40
20066;DHT22;10193;48.884;9.182;2022-10-19T06:02:13;16.90;80.50
20066;DHT22;10193;48.884;9.182;2022-10-19T06:04:40;16.90;80.60
20066;DHT22;10193;48.884;9.182;2022-10-19T06:07:06;16.90;80.60
20066;DHT22;10193;48.884;9.182;2022-10-19T06:09:33;16.90;80.60
20066;DHT22;10193;48.884;9.182;2022-10-19T06:12:00;16.90;80.70
20066;DHT22;10193;48.884;9.182;2022-10-19T06:14:27;17.00;80.90
20066;DHT22;10193;48.884;9.182;2022-10-19T06:16:54;17.00;80.90
20066;DHT22;10193;48.884;9.182;2022-10-19T06:19:22;17.00;80.90
20066;DHT22;10193;48.884;9.182;2022-10-19T06:21:49;17.00;80.70
20066;DHT22;10193;48.884;9.182;2022-10-19T06:24:16;17.00;80.70
20066;DHT22;10193;48.884;9.182;2022-10-19T06:26:44;17.00;80.70
20066;DHT22;10193;48.884;9.182;2022-10-19T06:29:11;17.00;80.70
20066;DHT22;10193;48.884;9.182;2022-10-19T06:31:37;17.00;80.80
20066;DHT22;10193;48.884;9.182;2022-10-19T06:34:04;17.00;80.90
20066;DHT22;10193;48.884;9.182;2022-10-19T06:36:33;17.00;81.00
20066;DHT22;10193;48.884;9.182;2022-10-19T06:39:00;17.00;81.00
20066;DHT22;10193;48.884;9.182;2022-10-19T06:41:28;17.10;81.10
20066;DHT22;10193;48.884;9.182;2022-10-19T06:43:56;17.10;81.10
20066;DHT22;10193;48.884;9.182;2022-10-19T06:46:24;17.10;81.10
20066;DHT22;10193;48.884;9.182;2022-10-19T06:48:53;17.10;81.00
20066;DHT22;10193;48.884;9.182;2022-10-19T06:51:20;17.10;80.90
20066;DHT22;10193;48.884;9.182;2022-10-19T06:53:49;17.20;80.60
20066;DHT22;10193;48.884;9.182;2022-10-19T06:56:16;17.20;80.40
20066;DHT22;10193;48.884;9.182;2022-10-19T06:58:43;17.20;80.20
20066;DHT22;10193;48.884;9.182;2022-10-19T07:01:10;17.10;80.00
20066;DHT22;10193;48.884;9.182;2022-10-19T07:03:39;17.20;80.10
20066;DHT22;10193;48.884;9.182;2022-10-19T07:06:08;17.10;80.10
20066;DHT22;10193;48.884;9.182;2022-10-19T07:08:36;17.10;80.30
20066;DHT22;10193;48.884;9.182;2022-10-19T07:11:06;17.10;80.40
20066;DHT22;10193;48.884;9.182;2022-10-19T07:13:33;17.20;81.40
20066;DHT22;10193;48.884;9.182;2022-10-19T07:16:03;17.20;80.70
20066;DHT22;10193;48.884;9.182;2022-10-19T07:18:31;17.20;80.80
20066;DHT22;10193;48.884;9.182;2022-10-19T07:21:01;17.20;81.00
20066;DHT22;10193;48.884;9.182;2022-10-19T07:23:30;17.20;81.00
20066;DHT22;10193;48.884;9.182;2022-10-19T07:25:57;17.20;81.10
20066;DHT22;10193;48.884;9.182;2022-10-19T07:28:28;17.30;81.20
20066;DHT22;10193;48.884;9.182;2022-10-19T07:30:55;17.30;81.30
20066;DHT22;10193;48.884;9.182;2022-10-19T07:33:22;17.30;81.30
20066;DHT22;10193;48.884;9.182;2022-10-19T07:35:49;17.40;81.60
20066;DHT22;10193;48.884;9.182;2022-10-19T07:38:16;17.40;81.60
20066;DHT22;10193;48.884;9.182;2022-10-19T07:40:43;17.50;81.60
20066;DHT22;10193;48.884;9.182;2022-10-19T07:43:09;17.50;81.70
20066;DHT22;10193;48.884;9.182;2022-10-19T07:45:38;17.50;81.80
20066;DHT22;10193;48.884;9.182;2022-10-19T07:48:05;17.60;81.90
20066;DHT22;10193;48.884;9.182;2022-10-19T07:50:32;17.60;82.00
20066;DHT22;10193;48.884;9.182;2022-10-19T07:52:58;17.70;82.10
20066;DHT22;10193;48.884;9.182;2022-10-19T07:55:27;17.80;82.00
20066;DHT22;10193;48.884;9.182;2022-10-19T07:57:54;17.80;81.80
20066;DHT22;10193;48.884;9.182;2022-10-19T08:00:26;17.80;81.70
20066;DHT22;10193;48.884;9.182;2022-10-19T08:02:54;17.90;81.80
20066;DHT22;10193;48.884;9.182;2022-10-19T08:05:21;17.90;81.90
20066;DHT22;10193;48.884;9.182;2022-10-19T08:07:48;18.00;82.00
20066;DHT22;10193;48.884;9.182;2022-10-19T08:10:15;18.00;82.00
20066;DHT22;10193;48.884;9.182;2022-10-19T08:12:41;18.10;82.10
20066;DHT22;10193;48.884;9.182;2022-10-19T08:15:09;18.20;82.20
20066;DHT22;10193;48.884;9.182;2022-10-19T08:17:36;18.20;82.10
20066;DHT22;10193;48.884;9.182;2022-10-19T08:20:05;18.30;82.30
20066;DHT22;10193;48.884;9.182;2022-10-19T08:22:32;18.30;82.30
20066;DHT22;10193;48.884;9.182;2022-10-19T08:24:59;18.40;82.30
20066;DHT22;10193;48.884;9.182;2022-10-19T08:27:26;18.50;82.30
20066;DHT22;10193;48.884;9.182;2022-10-19T08:29:53;18.60;82.10
20066;DHT22;10193;48.884;9.182;2022-10-19T08:32:20;18.60;81.80
20066;DHT22;10193;48.884;9.182;2022-10-19T08:34:47;18.70;81.80
20066;DHT22;10193;48.884;9.182;2022-10-19T08:37:16;18.70;81.70
20066;DHT22;10193;48.884;9.182;2022-10-19T08:39:42;18.80;81.70
20066;DHT22;10193;48.884;9.182;2022-10-19T08:42:15;18.80;81.40
20066;DHT22;10193;48.884;9.182;2022-10-19T08:47:53;18.90;80.70
20066;DHT22;10193;48.884;9.182;2022-10-19T08:50:25;18.90;80.50
20066;DHT22;10193;48.884;9.182;2022-10-19T08:52:59;18.90;80.30
20066;DHT22;10193;48.884;9.182;2022-10-19T08:55:32;18.90;79.90
20066;DHT22;10193;48.884;9.182;2022-10-19T08:58:09;18.90;79.90
20066;DHT22;10193;48.884;9.182;2022-10-19T09:00:48;18.90;80.10
20066;DHT22;10193;48.884;9.182;2022-10-19T09:03:22;18.90;80.30
20066;DHT22;10193;48.884;9.182;2022-10-19T09:05:55;18.90;80.30
20066;DHT22;10193;48.884;9.182;2022-10-19T09:08:25;19.00;80.40
20066;DHT22;10193;48.884;9.182;2022-10-19T09:10:52;18.90;81.00
20066;DHT22;10193;48.884;9.182;2022-10-19T09:13:30;19.00;80.20
20066;DHT22;10193;48.884;9.182;2022-10-19T09:15:59;19.00;80.80
20066;DHT22;10193;48.884;9.182;2022-10-19T09:18:28;19.00;80.00
20066;DHT22;10193;48.884;9.182;2022-10-19T09:20:59;19.00;80.60
20066;DHT22;10193;48.884;9.182;2022-10-19T09:23:33;19.00;79.60
20066;DHT22;10193;48.884;9.182;2022-10-19T09:26:02;19.00;79.60
20066;DHT22;10193;48.884;9.182;2022-10-19T09:28:42;19.00;79.60
20066;DHT22;10193;48.884;9.182;2022-10-19T09:31:15;19.10;79.50
20066;DHT22;10193;48.884;9.182;2022-10-19T09:33:47;19.10;79.60
20066;DHT22;10193;48.884;9.182;2022-10-19T09:36:16;19.10;79.80
20066;DHT22;10193;48.884;9.182;2022-10-19T09:38:44;19.10;80.00
20066;DHT22;10193;48.884;9.182;2022-10-19T09:41:15;19.10;80.00
20066;DHT22;10193;48.884;9.182;2022-10-19T09:43:46;19.10;79.80
20066;DHT22;10193;48.884;9.182;2022-10-19T09:46:27;19.20;79.80
20066;DHT22;10193;48.884;9.182;2022-10-19T09:48:58;19.20;79.40
20066;DHT22;10193;48.884;9.182;2022-10-19T09:51:28;19.30;79.50
20066;DHT22;10193;48.884;9.182;2022-10-19T09:54:07;19.30;79.30
20066;DHT22;10193;48.884;9.182;2022-10-19T09:56:52;19.30;79.20
20066;DHT22;10193;48.884;9.182;2022-10-19T09:59:21;19.40;78.80
20066;DHT22;10193;48.884;9.182;2022-10-19T10:01:59;19.40;78.60
20066;DHT22;10193;48.884;9.182;2022-10-19T10:04:26;19.40;78.00
20066;DHT22;10193;48.884;9.182;2022-10-19T10:06:56;19.40;78.20
20066;DHT22;10193;48.884;9.182;2022-10-19T10:09:27;19.40;78.20
20066;DHT22;10193;48.884;9.182;2022-10-19T10:11:57;19.40;78.20
20066;DHT22;10193;48.884;9.182;2022-10-19T10:14:27;19.40;78.20
20066;DHT22;10193;48.884;9.182;2022-10-19T10:16:55;19.40;78.90
20066;DHT22;10193;48.884;9.182;2022-10-19T10:19:27;19.50;78.40
20066;DHT22;10193;48.884;9.182;2022-10-19T10:21:56;19.50;78.20
20066;DHT22;10193;48.884;9.182;2022-10-19T10:24:26;19.50;78.40
20066;DHT22;10193;48.884;9.182;2022-10-19T10:26:54;19.60;78.50
20066;DHT22;10193;48.884;9.182;2022-10-19T10:29:23;19.60;79.20
20066;DHT22;10193;48.884;9.182;2022-10-19T10:31:52;19.60;78.40
20066;DHT22;10193;48.884;9.182;2022-10-19T10:34:31;19.70;78.50
20066;DHT22;10193;48.884;9.182;2022-10-19T10:36:59;19.60;78.20
20066;DHT22;10193;48.884;9.182;2022-10-19T10:39:28;19.70;78.60
20066;DHT22;10193;48.884;9.182;2022-10-19T10:41:59;19.80;78.60
20066;DHT22;10193;48.884;9.182;2022-10-19T10:44:27;19.90;78.50
20066;DHT22;10193;48.884;9.182;2022-10-19T10:46:57;19.90;78.30
20066;DHT22;10193;48.884;9.182;2022-10-19T10:49:27;19.90;78.10
20066;DHT22;10193;48.884;9.182;2022-10-19T10:51:55;20.00;78.00
20066;DHT22;10193;48.884;9.182;2022-10-19T10:54:24;20.00;78.10
20066;DHT22;10193;48.884;9.182;2022-10-19T10:57:04;20.10;78.30
20066;DHT22;10193;48.884;9.182;2022-10-19T10:59:36;20.10;77.70
20066;DHT22;10193;48.884;9.182;2022-10-19T11:02:13;20.20;77.70
20066;DHT22;10193;48.884;9.182;2022-10-19T11:04:47;20.20;77.10
20066;DHT22;10193;48.884;9.182;2022-10-19T11:07:18;20.30;77.10
20066;DHT22;10193;48.884;9.182;2022-10-19T11:09:49;20.30;76.80
20066;DHT22;10193;48.884;9.182;2022-10-19T11:12:27;20.30;76.40
20066;DHT22;10193;48.884;9.182;2022-10-19T11:15:03;20.30;75.90
20066;DHT22;10193;48.884;9.182;2022-10-19T11:17:35;20.30;75.70
20066;DHT22;10193;48.884;9.182;2022-10-19T11:20:05;20.30;76.00
20066;DHT22;10193;48.884;9.182;2022-10-19T11:22:36;20.20;76.00
20066;DHT22;10193;48.884;9.182;2022-10-19T11:25:27;20.20;75.90
20066;DHT22;10193;48.884;9.182;2022-10-19T11:28:05;20.20;75.60
20066;DHT22;10193;48.884;9.182;2022-10-19T11:30:44;20.20;75.40
20066;DHT22;10193;48.884;9.182;2022-10-19T11:33:19;20.20;75.30
20066;DHT22;10193;48.884;9.182;2022-10-19T11:35:50;20.20;75.10
20066;DHT22;10193;48.884;9.182;2022-10-19T11:38:41;20.10;75.00
20066;DHT22;10193;48.884;9.182;2022-10-19T11:41:20;20.10;74.50
20066;DHT22;10193;48.884;9.182;2022-10-19T11:44:12;20.00;74.80
20066;DHT22;10193;48.884;9.182;2022-10-19T11:46:49;20.00;74.60
20066;DHT22;10193;48.884;9.182;2022-10-19T11:49:28;20.00;75.00
20066;DHT22;10193;48.884;9.182;2022-10-19T11:52:00;19.90;75.20
20066;DHT22;10193;48.884;9.182;2022-10-19T11:54:40;19.90;75.60
20066;DHT22;10193;48.884;9.182;2022-10-19T11:57:13;20.00;75.60
20066;DHT22;10193;48.884;9.182;2022-10-19T11:59:52;20.00;75.70
20066;DHT22;10193;48.884;9.182;2022-10-19T12:02:38;20.00;75.40
20066;DHT22;10193;48.884;9.182;2022-10-19T12:05:10;20.10;75.40
20066;DHT22;10193;48.884;9.182;2022-10-19T12:07:53;20.10;75.40
20066;DHT22;10193;48.884;9.182;2022-10-19T12:10:28;20.10;75.90
20066;DHT22;10193;48.884;9.182;2022-10-19T12:13:01;20.20;75.10
20066;DHT22;10193;48.884;9.182;2022-10-19T12:15:32;20.20;75.00
20066;DHT22;10193;48.884;9.182;2022-10-19T12:18:03;20.20;74.70
20066;DHT22;10193;48.884;9.182;2022-10-19T12:20:36;20.20;74.80
20066;DHT22;10193;48.884;9.182;2022-10-19T12:23:15;20.30;74.80
20066;DHT22;10193;48.884;9.182;2022-10-19T12:25:44;20.30;74.80
20066;DHT22;10193;48.884;9.182;2022-10-19T12:28:19;20.30;74.90
20066;DHT22;10193;48.884;9.182;2022-10-19T12:30:49;20.30;74.40
20066;DHT22;10193;48.884;9.182;2022-10-19T12:33:20;20.40;74.70
20066;DHT22;10193;48.884;9.182;2022-10-19T12:36:10;20.40;74.70
20066;DHT22;10193;48.884;9.182;2022-10-19T12:38:45;20.40;74.30
20066;DHT22;10193;48.884;9.182;2022-10-19T12:41:19;20.50;74.60
20066;DHT22;10193;48.884;9.182;2022-10-19T12:44:04;20.50;74.50
20066;DHT22;10193;48.884;9.182;2022-10-19T12:46:39;20.50;74.40
20066;DHT22;10193;48.884;9.182;2022-10-19T12:49:45;20.60;74.40
20066;DHT22;10193;48.884;9.182;2022-10-19T12:52:13;20.60;73.70
20066;DHT22;10193;48.884;9.182;2022-10-19T12:54:41;20.70;74.40
20066;DHT22;10193;48.884;9.182;2022-10-19T12:57:26;20.70;74.30
20066;DHT22;10193;48.884;9.182;2022-10-19T13:00:00;20.70;73.90
20066;DHT22;10193;48.884;9.182;2022-10-19T13:02:31;20.70;74.10
20066;DHT22;10193;48.884;9.182;2022-10-19T13:04:58;20.80;74.00
20066;DHT22;10193;48.884;9.182;2022-10-19T13:07:26;20.80;74.10
20066;DHT22;10193;48.884;9.182;2022-10-19T13:09:59;20.90;74.00
20066;DHT22;10193;48.884;9.182;2022-10-19T13:12:39;20.90;73.60
20066;DHT22;10193;48.884;9.182;2022-10-19T13:15:51;21.00;73.70
20066;DHT22;10193;48.884;9.182;2022-10-19T13:24:43;21.00;72.80
20066;DHT22;10193;48.884;9.182;2022-10-19T13:27:48;21.00;73.20
20066;DHT22;10193;48.884;9.182;2022-10-19T13:31:02;21.10;73.00
20066;DHT22;10193;48.884;9.182;2022-10-19T13:33:43;21.10;72.80
20066;DHT22;10193;48.884;9.182;2022-10-19T13:36:11;21.10;73.10
20066;DHT22;10193;48.884;9.182;2022-10-19T13:38:39;21.20;73.80
20066;DHT22;10193;48.884;9.182;2022-10-19T13:41:10;21.30;73.90
20066;DHT22;10193;48.884;9.182;2022-10-19T13:43:59;21.30;73.60
20066;DHT22;10193;48.884;9.182;2022-10-19T13:46:43;21.40;73.30
20066;DHT22;10193;48.884;9.182;2022-10-19T13:52:47;21.60;73.00
20066;DHT22;10193;48.884;9.182;2022-10-19T13:58:33;21.80;73.00
20066;DHT22;10193;48.884;9.182;2022-10-19T14:01:18;21.80;72.50
20066;DHT22;10193;48.884;9.182;2022-10-19T14:04:02;21.90;72.30
20066;DHT22;10193;48.884;9.182;2022-10-19T14:06:39;22.00;72.10
20066;DHT22;10193;48.884;9.182;2022-10-19T14:12:18;22.00;71.10
20066;DHT22;10193;48.884;9.182;2022-10-19T14:14:46;22.00;71.00
20066;DHT22;10193;48.884;9.182;2022-10-19T14:17:18;22.00;71.00
20066;DHT22;10193;48.884;9.182;2022-10-19T14:19:48;22.00;70.60
20066;DHT22;10193;48.884;9.182;2022-10-19T14:22:34;22.00;70.60
20066;DHT22;10193;48.884;9.182;2022-10-19T14:25:05;21.90;69.60
20066;DHT22;10193;48.884;9.182;2022-10-19T14:27:32;21.90;70.30
20066;DHT22;10193;48.884;9.182;2022-10-19T14:30:00;21.80;70.30
20066;DHT22;10193;48.884;9.182;2022-10-19T14:32:29;21.80;70.20
20066;DHT22;10193;48.884;9.182;2022-10-19T14:35:05;21.80;70.20
20066;DHT22;10193;48.884;9.182;2022-10-19T14:37:43;21.80;70.00
20066;DHT22;10193;48.884;9.182;2022-10-19T14:40:22;21.80;70.40
20066;DHT22;10193;48.884;9.182;2022-10-19T14:42:49;21.70;69.90
20066;DHT22;10193;48.884;9.182;2022-10-19T14:45:18;21.70;70.10
20066;DHT22;10193;48.884;9.182;2022-10-19T14:47:55;21.70;70.00
20066;DHT22;10193;48.884;9.182;2022-10-19T14:50:27;21.70;69.60
20066;DHT22;10193;48.884;9.182;2022-10-19T14:53:00;21.70;69.80
20066;DHT22;10193;48.884;9.182;2022-10-19T14:55:33;21.70;69.70
20066;DHT22;10193;48.884;9.182;2022-10-19T14:58:00;21.60;69.40
20066;DHT22;10193;48.884;9.182;2022-10-19T15:00:31;21.60;69.50
20066;DHT22;10193;48.884;9.182;2022-10-19T15:03:02;21.60;69.20
20066;DHT22;10193;48.884;9.182;2022-10-19T15:05:33;21.60;69.10
20066;DHT22;10193;48.884;9.182;2022-10-19T15:08:06;21.60;69.00
20066;DHT22;10193;48.884;9.182;2022-10-19T15:10:40;21.50;68.70
20066;DHT22;10193;48.884;9.182;2022-10-19T15:13:15;21.50;68.60
20066;DHT22;10193;48.884;9.182;2022-10-19T15:15:49;21.50;68.80
20066;DHT22;10193;48.884;9.182;2022-10-19T15:18:20;21.40;68.60
20066;DHT22;10193;48.884;9.182;2022-10-19T15:21:00;21.30;68.50
20066;DHT22;10193;48.884;9.182;2022-10-19T15:23:33;21.30;68.20
20066;DHT22;10193;48.884;9.182;2022-10-19T15:26:02;21.30;68.40
20066;DHT22;10193;48.884;9.182;2022-10-19T15:28:34;21.20;68.40
20066;DHT22;10193;48.884;9.182;2022-10-19T15:31:04;21.20;68.10
20066;DHT22;10193;48.884;9.182;2022-10-19T15:33:38;21.20;68.30
20066;DHT22;10193;48.884;9.182;2022-10-19T15:36:07;21.10;68.20
20066;DHT22;10193;48.884;9.182;2022-10-19T15:38:42;21.00;68.30
20066;DHT22;10193;48.884;9.182;2022-10-19T15:41:18;21.00;68.40
20066;DHT22;10193;48.884;9.182;2022-10-19T15:43:50;20.90;68.00
20066;DHT22;10193;48.884;9.182;2022-10-19T15:46:23;20.90;68.10
20066;DHT22;10193;48.884;9.182;2022-10-19T15:48:53;20.80;68.00
20066;DHT22;10193;48.884;9.182;2022-10-19T15:51:47;20.80;68.00
20066;DHT22;10193;48.884;9.182;2022-10-19T15:54:16;20.70;67.80
20066;DHT22;10193;48.884;9.182;2022-10-19T15:56:44;20.60;68.00
20066;DHT22;10193;48.884;9.182;2022-10-19T15:59:16;20.60;68.10
20066;DHT22;10193;48.884;9.182;2022-10-19T16:01:44;20.50;68.00
20066;DHT22;10193;48.884;9.182;2022-10-19T16:04:14;20.50;68.30
20066;DHT22;10193;48.884;9.182;2022-10-19T16:06:42;20.50;68.30
20066;DHT22;10193;48.884;9.182;2022-10-19T16:09:15;20.40;68.40
20066;DHT22;10193;48.884;9.182;2022-10-19T16:11:43;20.40;68.40
20066;DHT22;10193;48.884;9.182;2022-10-19T16:14:10;20.30;68.40
20066;DHT22;10193;48.884;9.182;2022-10-19T16:16:37;20.30;68.40